sensor_id;sensor_type;location;lat;lon;timestamp;temperature;humidity
52439;DHT22;38359;53.150;6.504;2022-12-05T00:08:01;4.70;99.90
52439;DHT22;38359;53.150;6.504;2022-12-05T00:18:27;5.00;99.90
52439;DHT22;38359;53.150;6.504;2022-12-05T00:28:53;5.10;99.90
52439;DHT22;38359;53.150;6.504;2022-12-05T00:39:18;5.00;99.90
52439;DHT22;38359;53.150;6.504;2022-12-05T00:49:44;5.20;99.90
52439;DHT22;38359;53.150;6.504;2022-12-05T01:00:10;5.00;99.90
52439;DHT22;38359;53.150;6.504;2022-12-05T01:10:36;5.20;99.90
52439;DHT22;38359;53.150;6.504;2022-12-05T01:21:04;5.40;99.90
52439;DHT22;38359;53.150;6.504;2022-12-05T01:31:33;5.40;99.90
52439;DHT22;38359;53.150;6.504;2022-12-05T01:42:01;5.30;99.90
52439;DHT22;38359;53.150;6.504;2022-12-05T01:52:30;5.30;99.90
52439;DHT22;38359;53.150;6.504;2022-12-05T02:03:01;5.40;99.90
52439;DHT22;38359;53.150;6.504;2022-12-05T02:13:56;5.70;99.90
52439;DHT22;38359;53.150;6.504;2022-12-05T02:24:49;5.40;99.90
52439;DHT22;38359;53.150;6.504;2022-12-05T02:46:20;5.80;99.90
52439;DHT22;38359;53.150;6.504;2022-12-05T02:56:48;5.60;99.90
52439;DHT22;38359;53.150;6.504;2022-12-05T03:07:16;5.60;99.90
52439;DHT22;38359;53.150;6.504;2022-12-05T03:40:03;5.70;99.90
52439;DHT22;38359;53.150;6.504;2022-12-05T03:50:34;5.60;99.90
52439;DHT22;38359;53.150;6.504;2022-12-05T04:01:04;5.40;99.90
52439;DHT22;38359;53.150;6.504;2022-12-05T04:11:34;5.50;99.90
52439;DHT22;38359;53.150;6.504;2022-12-05T04:22:04;5.50;99.90
52439;DHT22;38359;53.150;6.504;2022-12-05T04:43:25;5.60;99.90
52439;DHT22;38359;53.150;6.504;2022-12-05T04:53:56;5.70;99.90
52439;DHT22;38359;53.150;6.504;2022-12-05T05:04:31;5.60;99.90
52439;DHT22;38359;53.150;6.504;2022-12-05T05:14:59;5.70;99.90
52439;DHT22;38359;53.150;6.504;2022-12-05T05:25:25;5.60;99.90
52439;DHT22;38359;53.150;6.504;2022-12-05T05:35:51;5.80;99.90
52439;DHT22;38359;53.150;6.504;2022-12-05T05:46:20;5.50;99.90
52439;DHT22;38359;53.150;6.504;2022-12-05T05:56:47;5.60;99.90
52439;DHT22;38359;53.150;6.504;2022-12-05T06:07:13;5.80;99.90
52439;DHT22;38359;53.150;6.504;2022-12-05T06:17:38;5.50;99.90
52439;DHT22;38359;53.150;6.504;2022-12-05T06:28:04;5.60;99.90
52439;DHT22;38359;53.150;6.504;2022-12-05T06:38:30;5.70;99.90
52439;DHT22;38359;53.150;6.504;2022-12-05T06:48:57;5.80;99.90
52439;DHT22;38359;53.150;6.504;2022-12-05T06:59:23;5.90;99.90
52439;DHT22;38359;53.150;6.504;2022-12-05T07:09:49;5.90;99.90
52439;DHT22;38359;53.150;6.504;2022-12-05T07:20:18;5.80;99.90
52439;DHT22;38359;53.150;6.504;2022-12-05T07:30:43;5.60;99.90
52439;DHT22;38359;53.150;6.504;2022-12-05T07:41:20;5.60;99.90
52439;DHT22;38359;53.150;6.504;2022-12-05T07:51:48;5.70;99.90
52439;DHT22;38359;53.150;6.504;2022-12-05T08:02:14;5.70;99.90
52439;DHT22;38359;53.150;6.504;2022-12-05T08:12:40;5.90;99.90
52439;DHT22;38359;53.150;6.504;2022-12-05T08:23:05;5.90;99.90
52439;DHT22;38359;53.150;6.504;2022-12-05T08:33:31;5.80;99.90
52439;DHT22;38359;53.150;6.504;2022-12-05T08:44:02;5.80;99.90
52439;DHT22;38359;53.150;6.504;2022-12-05T08:54:29;5.90;99.90
52439;DHT22;38359;53.150;6.504;2022-12-05T09:04:55;5.70;99.90
52439;DHT22;38359;53.150;6.504;2022-12-05T09:15:21;5.80;99.90
52439;DHT22;38359;53.150;6.504;2022-12-05T09:25:53;5.70;99.90
52439;DHT22;38359;53.150;6.504;2022-12-05T09:36:24;5.80;99.90
52439;DHT22;38359;53.150;6.504;2022-12-05T09:46:57;5.80;99.90
52439;DHT22;38359;53.150;6.504;2022-12-05T09:57:34;6.00;99.90
52439;DHT22;38359;53.150;6.504;2022-12-05T10:19:17;5.90;99.90
52439;DHT22;38359;53.150;6.504;2022-12-05T10:30:02;6.00;99.90
52439;DHT22;38359;53.150;6.504;2022-12-05T10:40:41;6.00;99.90
52439;DHT22;38359;53.150;6.504;2022-12-05T10:51:14;6.00;99.90
52439;DHT22;38359;53.150;6.504;2022-12-05T11:01:56;5.90;99.90
52439;DHT22;38359;53.150;6.504;2022-12-05T11:12:28;6.10;99.90
52439;DHT22;38359;53.150;6.504;2022-12-05T11:23:25;6.10;99.90
52439;DHT22;38359;53.150;6.504;2022-12-05T11:34:02;6.00;99.90
52439;DHT22;38359;53.150;6.504;2022-12-05T11:56:00;6.10;99.90
52439;DHT22;38359;53.150;6.504;2022-12-05T13:01:02;6.20;99.90
52439;DHT22;38359;53.150;6.504;2022-12-05T13:11:38;5.90;99.90
52439;DHT22;38359;53.150;6.504;2022-12-05T13:22:07;6.10;99.90
52439;DHT22;38359;53.150;6.504;2022-12-05T13:32:39;6.20;99.90
52439;DHT22;38359;53.150;6.504;2022-12-05T13:43:05;5.90;99.90
52439;DHT22;38359;53.150;6.504;2022-12-05T13:53:43;6.10;99.90
52439;DHT22;38359;53.150;6.504;2022-12-05T14:04:47;6.20;99.90
52439;DHT22;38359;53.150;6.504;2022-12-05T14:15:34;5.80;99.90
52439;DHT22;38359;53.150;6.504;2022-12-05T14:37:05;5.90;99.90
52439;DHT22;38359;53.150;6.504;2022-12-05T14:47:33;5.90;99.90
52439;DHT22;38359;53.150;6.504;2022-12-05T14:57:59;5.90;99.90
52439;DHT22;38359;53.150;6.504;2022-12-05T15:08:29;5.80;99.90
52439;DHT22;38359;53.150;6.504;2022-12-05T15:19:24;5.90;99.90
52439;DHT22;38359;53.150;6.504;2022-12-05T15:29:54;6.00;99.90
52439;DHT22;38359;53.150;6.504;2022-12-05T15:40:21;5.70;99.90
52439;DHT22;38359;53.150;6.504;2022-12-05T15:50:52;5.70;99.90
52439;DHT22;38359;53.150;6.504;2022-12-05T16:01:23;5.70;99.90
52439;DHT22;38359;53.150;6.504;2022-12-05T16:11:55;5.80;99.90
52439;DHT22;38359;53.150;6.504;2022-12-05T16:22:23;5.80;99.90
52439;DHT22;38359;53.150;6.504;2022-12-05T16:33:02;5.90;99.90
52439;DHT22;38359;53.150;6.504;2022-12-05T16:43:42;5.80;99.90
52439;DHT22;38359;53.150;6.504;2022-12-05T16:54:09;6.00;99.90
52439;DHT22;38359;53.150;6.504;2022-12-05T17:04:34;5.70;99.90
52439;DHT22;38359;53.150;6.504;2022-12-05T17:15:00;5.90;99.90
52439;DHT22;38359;53.150;6.504;2022-12-05T17:25:33;5.90;99.90
52439;DHT22;38359;53.150;6.504;2022-12-05T17:36:01;5.90;99.90
52439;DHT22;38359;53.150;6.504;2022-12-05T17:46:27;5.70;99.90
52439;DHT22;38359;53.150;6.504;2022-12-05T17:56:52;5.80;99.90
52439;DHT22;38359;53.150;6.504;2022-12-05T18:07:18;5.70;99.90
52439;DHT22;38359;53.150;6.504;2022-12-05T18:17:44;5.70;99.90
52439;DHT22;38359;53.150;6.504;2022-12-05T18:28:10;5.80;99.90
52439;DHT22;38359;53.150;6.504;2022-12-05T18:38:36;5.80;99.90
52439;DHT22;38359;53.150;6.504;2022-12-05T18:49:03;5.90;99.90
52439;DHT22;38359;53.150;6.504;2022-12-05T18:59:29;5.90;99.90
52439;DHT22;38359;53.150;6.504;2022-12-05T19:09:55;6.00;99.90
52439;DHT22;38359;53.150;6.504;2022-12-05T19:20:20;5.80;99.90
52439;DHT22;38359;53.150;6.504;2022-12-05T19:30:46;5.80;99.90
52439;DHT22;38359;53.150;6.504;2022-12-05T19:41:14;6.00;99.90
52439;DHT22;38359;53.150;6.504;2022-12-05T19:51:41;6.00;99.90
52439;DHT22;38359;53.150;6.504;2022-12-05T20:02:07;6.30;99.90
52439;DHT22;38359;53.150;6.504;2022-12-05T20:12:33;5.90;99.90
52439;DHT22;38359;53.150;6.504;2022-12-05T20:22:59;5.80;99.90
52439;DHT22;38359;53.150;6.504;2022-12-05T20:33:25;6.00;99.90
52439;DHT22;38359;53.150;6.504;2022-12-05T20:43:59;5.90;99.90
52439;DHT22;38359;53.150;6.504;2022-12-05T20:54:26;5.80;99.90
52439;DHT22;38359;53.150;6.504;2022-12-05T21:04:52;5.90;99.90
52439;DHT22;38359;53.150;6.504;2022-12-05T21:15:18;6.00;99.90
52439;DHT22;38359;53.150;6.504;2022-12-05T21:25:43;5.70;99.90
52439;DHT22;38359;53.150;6.504;2022-12-05T21:36:09;6.00;99.90
52439;DHT22;38359;53.150;6.504;2022-12-05T21:46:35;5.80;99.90
52439;DHT22;38359;53.150;6.504;2022-12-05T21:57:01;5.90;99.90
52439;DHT22;38359;53.150;6.504;2022-12-05T22:07:26;5.70;99.90
52439;DHT22;38359;53.150;6.504;2022-12-05T22:17:52;6.00;99.90
52439;DHT22;38359;53.150;6.504;2022-12-05T22:28:18;6.00;99.90
52439;DHT22;38359;53.150;6.504;2022-12-05T22:38:45;5.70;99.90
52439;DHT22;38359;53.150;6.504;2022-12-05T22:49:12;5.80;99.90
52439;DHT22;38359;53.150;6.504;2022-12-05T22:59:37;5.90;99.90
52439;DHT22;38359;53.150;6.504;2022-12-05T23:10:03;5.80;99.90
52439;DHT22;38359;53.150;6.504;2022-12-05T23:20:30;5.70;99.90
52439;DHT22;38359;53.150;6.504;2022-12-05T23:31:00;5.90;99.90
52439;DHT22;38359;53.150;6.504;2022-12-05T23:41:27;5.80;99.90
52439;DHT22;38359;53.150;6.504;2022-12-05T23:51:53;5.50;99.90
